createdAt,value
2018-05-24T00:00:01.339Z,0
2018-05-24T00:01:09.976Z,0
2018-05-24T00:02:18.629Z,0
2018-05-24T00:03:27.273Z,0
2018-05-24T00:04:35.925Z,0
2018-05-24T00:05:44.830Z,0
2018-05-24T00:06:53.480Z,0
2018-05-24T00:08:02.502Z,0
2018-05-24T00:09:11.156Z,0
2018-05-24T00:10:19.806Z,0
2018-05-24T00:11:28.446Z,0
2018-05-24T00:12:37.096Z,0
2018-05-24T00:13:45.738Z,0
2018-05-24T00:14:54.392Z,0
2018-05-24T00:16:03.033Z,0
2018-05-24T00:17:11.683Z,0
2018-05-24T00:18:20.326Z,0
2018-05-24T00:19:28.978Z,0
2018-05-24T00:20:37.619Z,0
2018-05-24T00:21:46.268Z,0
2018-05-24T00:22:54.907Z,0
2018-05-24T00:24:03.569Z,0
2018-05-24T00:25:12.209Z,0
2018-05-24T00:26:20.859Z,0
2018-05-24T00:27:29.508Z,0
2018-05-24T00:28:38.425Z,0
2018-05-24T00:29:47.073Z,0
2018-05-24T00:30:55.721Z,0
2018-05-24T00:32:04.638Z,0
2018-05-24T00:33:13.316Z,0
2018-05-24T00:34:21.925Z,0
2018-05-24T00:35:30.569Z,0
2018-05-24T00:36:39.219Z,0
2018-05-24T00:37:47.862Z,0
2018-05-24T00:38:56.507Z,0
2018-05-24T00:40:05.156Z,0
2018-05-24T00:41:13.810Z,0
2018-05-24T00:42:22.452Z,0
2018-05-24T00:43:31.104Z,0
2018-05-24T00:44:39.746Z,0
2018-05-24T00:45:48.398Z,0
2018-05-24T00:46:57.042Z,0
2018-05-24T00:48:05.688Z,0
2018-05-24T00:49:14.598Z,0
2018-05-24T00:50:23.243Z,0
2018-05-24T00:51:31.892Z,0
2018-05-24T00:52:40.533Z,0
2018-05-24T00:53:49.179Z,0
2018-05-24T00:54:57.828Z,0
2018-05-24T00:56:06.513Z,0
2018-05-24T00:57:15.126Z,0
2018-05-24T00:58:23.773Z,0
2018-05-24T00:59:32.417Z,0
2018-05-24T01:00:41.067Z,0
2018-05-24T01:01:49.710Z,0
2018-05-24T01:02:58.357Z,0
2018-05-24T01:04:06.999Z,0
2018-05-24T01:05:15.916Z,0
2018-05-24T01:06:24.559Z,0
2018-05-24T01:07:33.206Z,0
2018-05-24T01:08:41.856Z,0
2018-05-24T01:09:50.495Z,0
2018-05-24T01:10:59.141Z,0
2018-05-24T01:12:07.785Z,0
2018-05-24T01:13:16.708Z,0
2018-05-24T01:14:25.379Z,0
2018-05-24T01:15:33.987Z,0
2018-05-24T01:16:42.636Z,0
2018-05-24T01:17:51.283Z,0
2018-05-24T01:18:59.925Z,0
2018-05-24T01:20:08.574Z,0
2018-05-24T01:21:17.218Z,0
2018-05-24T01:22:25.859Z,0
2018-05-24T01:23:34.507Z,0
2018-05-24T01:24:43.154Z,0
2018-05-24T01:25:51.800Z,0
2018-05-24T01:27:00.717Z,0
2018-05-24T01:28:09.357Z,0
2018-05-24T01:29:18.013Z,0
2018-05-24T01:30:26.922Z,0
2018-05-24T01:31:35.833Z,0
2018-05-24T01:32:44.475Z,0
2018-05-24T01:33:53.122Z,0
2018-05-24T01:35:01.766Z,0
2018-05-24T01:36:10.418Z,0
2018-05-24T01:37:19.060Z,0
2018-05-24T01:38:27.972Z,0
2018-05-24T01:39:36.612Z,0
2018-05-24T01:40:45.526Z,0
2018-05-24T01:41:54.167Z,0
2018-05-24T01:43:02.812Z,0
2018-05-24T01:44:11.455Z,0
2018-05-24T01:45:20.106Z,0
2018-05-24T01:46:28.754Z,0
2018-05-24T01:47:37.401Z,0
2018-05-24T01:48:46.046Z,0
2018-05-24T01:49:54.953Z,0
2018-05-24T01:51:03.603Z,0
2018-05-24T01:52:12.243Z,0
2018-05-24T01:53:20.888Z,0
2018-05-24T01:54:29.528Z,0
2018-05-24T01:55:38.180Z,0
2018-05-24T01:56:46.820Z,0
2018-05-24T01:57:55.732Z,0
2018-05-24T01:59:04.372Z,0
2018-05-24T02:00:13.025Z,0
2018-05-24T02:01:21.671Z,0
2018-05-24T02:02:30.319Z,0
2018-05-24T02:03:38.972Z,0
2018-05-24T02:04:47.609Z,0
2018-05-24T02:05:56.522Z,0
2018-05-24T02:07:05.173Z,0
2018-05-24T02:08:13.823Z,0
2018-05-24T02:09:22.730Z,0
2018-05-24T02:10:31.376Z,0
2018-05-24T02:11:40.021Z,0
2018-05-24T02:12:48.670Z,0
2018-05-24T02:13:57.310Z,0
2018-05-24T02:15:06.240Z,0
2018-05-24T02:16:15.145Z,0
2018-05-24T02:17:23.794Z,0
2018-05-24T02:18:32.437Z,0
2018-05-24T02:19:41.081Z,0
2018-05-24T02:20:49.723Z,0
2018-05-24T02:21:58.904Z,0
2018-05-24T02:23:07.554Z,0
2018-05-24T02:24:16.199Z,0
2018-05-24T02:25:24.848Z,0
2018-05-24T02:26:33.484Z,0
2018-05-24T02:27:42.140Z,0
2018-05-24T02:28:51.049Z,0
2018-05-24T02:30:00.226Z,0
2018-05-24T02:31:09.127Z,0
2018-05-24T02:32:17.785Z,0
2018-05-24T02:33:26.429Z,0
2018-05-24T02:34:35.607Z,0
2018-05-24T02:35:44.519Z,0
2018-05-24T02:36:53.167Z,0
2018-05-24T02:38:02.092Z,0
2018-05-24T02:39:10.742Z,0
2018-05-24T02:40:19.395Z,0
2018-05-24T02:41:28.032Z,0
2018-05-24T02:42:36.689Z,0
2018-05-24T02:43:45.328Z,0
2018-05-24T02:44:54.515Z,0
2018-05-24T02:46:03.156Z,0
2018-05-24T02:47:11.806Z,0
2018-05-24T02:48:20.451Z,0
2018-05-24T02:49:29.109Z,0
2018-05-24T02:50:38.011Z,0
2018-05-24T02:51:46.664Z,0
2018-05-24T02:52:55.308Z,0
2018-05-24T02:54:03.965Z,0
2018-05-24T02:55:13.157Z,0
2018-05-24T02:56:21.894Z,0
2018-05-24T02:57:30.709Z,0
2018-05-24T02:58:39.887Z,0
2018-05-24T02:59:48.815Z,0
2018-05-24T03:00:57.451Z,0
2018-05-24T03:02:06.363Z,0
2018-05-24T03:03:15.349Z,0
2018-05-24T03:04:24.571Z,0
2018-05-24T03:05:33.515Z,0
2018-05-24T03:06:42.642Z,0
2018-05-24T03:07:51.335Z,0
2018-05-24T03:08:59.993Z,0
2018-05-24T03:10:08.638Z,0
2018-05-24T03:11:17.562Z,0
2018-05-24T03:12:26.203Z,0
2018-05-24T03:13:35.379Z,0
2018-05-24T03:14:44.035Z,0
2018-05-24T03:15:52.687Z,0
2018-05-24T03:17:01.337Z,0
2018-05-24T03:18:09.971Z,0
2018-05-24T03:19:18.620Z,0
2018-05-24T03:20:27.266Z,5
2018-05-24T03:21:35.917Z,5
2018-05-24T03:22:44.559Z,5
2018-05-24T03:23:53.485Z,5
2018-05-24T03:25:02.131Z,5
2018-05-24T03:26:10.776Z,5
2018-05-24T03:27:19.416Z,5
2018-05-24T03:28:28.064Z,5
2018-05-24T03:29:36.705Z,5
2018-05-24T03:30:45.367Z,5
2018-05-24T03:31:54.015Z,5
2018-05-24T03:33:02.656Z,5
2018-05-24T03:34:11.300Z,10
2018-05-24T03:35:20.041Z,10
2018-05-24T03:36:28.597Z,10
2018-05-24T03:37:37.777Z,10
2018-05-24T03:38:46.422Z,10
2018-05-24T03:39:55.063Z,10
2018-05-24T03:41:03.716Z,10
2018-05-24T03:42:12.891Z,10
2018-05-24T03:43:21.807Z,10
2018-05-24T03:44:30.447Z,10
2018-05-24T03:45:39.099Z,15
2018-05-24T03:46:47.738Z,15
2018-05-24T03:47:56.928Z,15
2018-05-24T03:49:05.831Z,15
2018-05-24T03:50:14.478Z,15
2018-05-24T03:51:23.127Z,15
2018-05-24T03:52:32.305Z,20
2018-05-24T03:53:40.953Z,20
2018-05-24T03:54:49.594Z,20
2018-05-24T03:55:58.239Z,20
2018-05-24T03:57:06.885Z,20
2018-05-24T03:58:15.536Z,20
2018-05-24T03:59:24.186Z,20
2018-05-24T04:00:32.826Z,20
2018-05-24T04:01:41.470Z,20
2018-05-24T04:02:50.121Z,20
2018-05-24T04:03:58.761Z,20
2018-05-24T04:05:07.407Z,20
2018-05-24T04:06:16.052Z,25
2018-05-24T04:07:24.701Z,25
2018-05-24T04:08:33.353Z,25
2018-05-24T04:09:41.996Z,25
2018-05-24T04:10:50.638Z,30
2018-05-24T04:11:59.597Z,30
2018-05-24T04:13:08.474Z,30
2018-05-24T04:14:17.114Z,35
2018-05-24T04:15:25.764Z,35
2018-05-24T04:16:34.406Z,35
2018-05-24T04:17:43.060Z,40
2018-05-24T04:18:51.699Z,40
2018-05-24T04:20:00.349Z,45
2018-05-24T04:21:08.987Z,50
2018-05-24T04:22:17.651Z,50
2018-05-24T04:23:26.698Z,50
2018-05-24T04:24:35.347Z,50
2018-05-24T04:25:43.987Z,50
2018-05-24T04:26:52.636Z,50
2018-05-24T04:28:01.286Z,50
2018-05-24T04:29:10.204Z,45
2018-05-24T04:30:18.851Z,45
2018-05-24T04:31:27.495Z,45
2018-05-24T04:32:36.408Z,45
2018-05-24T04:33:45.050Z,45
2018-05-24T04:34:53.703Z,45
2018-05-24T04:36:02.341Z,45
2018-05-24T04:37:10.992Z,45
2018-05-24T04:38:19.635Z,45
2018-05-24T04:39:28.288Z,45
2018-05-24T04:40:36.923Z,45
2018-05-24T04:41:45.578Z,50
2018-05-24T04:42:54.218Z,60
2018-05-24T04:44:02.872Z,65
2018-05-24T04:45:11.517Z,70
2018-05-24T04:46:20.160Z,70
2018-05-24T04:47:29.066Z,75
2018-05-24T04:48:37.711Z,80
2018-05-24T04:49:46.365Z,80
2018-05-24T04:50:55.008Z,75
2018-05-24T04:52:03.699Z,75
2018-05-24T04:53:12.296Z,75
2018-05-24T04:54:20.951Z,85
2018-05-24T04:55:29.594Z,90
2018-05-24T04:56:38.515Z,95
2018-05-24T04:57:47.153Z,95
2018-05-24T04:58:55.808Z,95
2018-05-24T05:00:04.449Z,95
2018-05-24T05:01:13.099Z,95
2018-05-24T05:02:21.732Z,95
2018-05-24T05:03:30.912Z,90
2018-05-24T05:04:39.834Z,90
2018-05-24T05:05:48.481Z,95
2018-05-24T05:06:57.130Z,95
2018-05-24T05:08:05.767Z,100
2018-05-24T05:09:14.681Z,105
2018-05-24T05:10:23.327Z,105
2018-05-24T05:11:32.245Z,105
2018-05-24T05:12:40.880Z,105
2018-05-24T05:13:49.531Z,105
2018-05-24T05:14:58.173Z,105
2018-05-24T05:16:06.817Z,105
2018-05-24T05:17:15.739Z,105
2018-05-24T05:18:24.651Z,105
2018-05-24T05:19:33.983Z,105
2018-05-24T05:20:42.590Z,105
2018-05-24T05:21:51.236Z,110
2018-05-24T05:23:00.199Z,110
2018-05-24T05:24:08.811Z,115
2018-05-24T05:25:17.463Z,115
2018-05-24T05:26:26.093Z,115
2018-05-24T05:27:34.745Z,115
2018-05-24T05:28:43.387Z,120
2018-05-24T05:29:52.043Z,115
2018-05-24T05:31:00.681Z,115
2018-05-24T05:32:09.333Z,115
2018-05-24T05:33:17.976Z,115
2018-05-24T05:34:26.905Z,120
2018-05-24T05:35:35.540Z,125
2018-05-24T05:36:44.184Z,130
2018-05-24T05:37:53.094Z,130
2018-05-24T05:39:02.026Z,135
2018-05-24T05:40:10.671Z,135
2018-05-24T05:41:19.314Z,145
2018-05-24T05:42:27.959Z,150
2018-05-24T05:43:36.608Z,165
2018-05-24T05:44:45.280Z,170
2018-05-24T05:45:54.175Z,175
2018-05-24T05:47:02.828Z,185
2018-05-24T05:48:11.467Z,200
2018-05-24T05:49:20.122Z,205
2018-05-24T05:50:28.764Z,215
2018-05-24T05:51:37.421Z,220
2018-05-24T05:52:46.330Z,230
2018-05-24T05:53:54.987Z,240
2018-05-24T05:55:03.895Z,255
2018-05-24T05:56:12.543Z,260
2018-05-24T05:57:21.180Z,270
2018-05-24T05:58:29.835Z,270
2018-05-24T05:59:38.480Z,255
2018-05-24T06:00:47.131Z,250
2018-05-24T06:01:55.801Z,255
2018-05-24T06:03:04.433Z,260
2018-05-24T06:04:13.094Z,250
2018-05-24T06:05:21.741Z,240
2018-05-24T06:06:30.394Z,240
2018-05-24T06:07:39.030Z,245
2018-05-24T06:08:47.683Z,250
2018-05-24T06:09:56.325Z,245
2018-05-24T06:11:04.982Z,240
2018-05-24T06:12:13.628Z,245
2018-05-24T06:13:22.538Z,230
2018-05-24T06:14:31.188Z,220
2018-05-24T06:15:39.840Z,215
2018-05-24T06:16:48.488Z,205
2018-05-24T06:17:57.132Z,190
2018-05-24T06:19:05.777Z,200
2018-05-24T06:20:14.425Z,205
2018-05-24T06:21:23.077Z,215
2018-05-24T06:22:31.728Z,220
2018-05-24T06:23:40.375Z,230
2018-05-24T06:24:49.019Z,235
2018-05-24T06:25:57.673Z,230
2018-05-24T06:27:06.322Z,225
2018-05-24T06:28:14.968Z,225
2018-05-24T06:29:23.622Z,225
2018-05-24T06:30:32.547Z,220
2018-05-24T06:31:41.197Z,215
2018-05-24T06:32:49.848Z,205
2018-05-24T06:33:58.489Z,195
2018-05-24T06:35:07.209Z,185
2018-05-24T06:36:15.888Z,175
2018-05-24T06:37:24.537Z,170
2018-05-24T06:38:33.191Z,175
2018-05-24T06:39:41.830Z,175
2018-05-24T06:40:50.475Z,190
2018-05-24T06:41:59.124Z,205
2018-05-24T06:43:07.777Z,225
2018-05-24T06:44:16.420Z,235
2018-05-24T06:45:25.068Z,250
2018-05-24T06:46:33.849Z,260
2018-05-24T06:47:42.642Z,260
2018-05-24T06:48:51.288Z,260
2018-05-24T06:49:59.938Z,260
2018-05-24T06:51:08.849Z,260
2018-05-24T06:52:17.503Z,260
2018-05-24T06:53:26.413Z,270
2018-05-24T06:54:35.063Z,275
2018-05-24T06:55:43.709Z,280
2018-05-24T06:56:52.355Z,285
2018-05-24T06:58:01.008Z,295
2018-05-24T06:59:09.655Z,320
2018-05-24T07:00:18.311Z,325
2018-05-24T07:01:26.948Z,340
2018-05-24T07:02:35.868Z,345
2018-05-24T07:03:44.514Z,350
2018-05-24T07:04:53.166Z,365
2018-05-24T07:06:02.269Z,390
2018-05-24T07:07:10.830Z,395
2018-05-24T07:08:19.477Z,400
2018-05-24T07:09:28.127Z,395
2018-05-24T07:10:36.774Z,390
2018-05-24T07:11:45.425Z,375
2018-05-24T07:12:54.074Z,365
2018-05-24T07:14:02.727Z,350
2018-05-24T07:15:11.908Z,335
2018-05-24T07:16:20.555Z,320
2018-05-24T07:17:29.204Z,315
2018-05-24T07:18:37.886Z,310
2018-05-24T07:19:46.510Z,310
2018-05-24T07:20:55.159Z,310
2018-05-24T07:22:03.807Z,310
2018-05-24T07:23:12.457Z,310
2018-05-24T07:24:21.110Z,300
2018-05-24T07:25:29.755Z,285
2018-05-24T07:26:38.405Z,300
2018-05-24T07:27:47.056Z,300
2018-05-24T07:28:55.706Z,305
2018-05-24T07:30:04.890Z,300
2018-05-24T07:31:13.540Z,295
2018-05-24T07:32:22.189Z,280
2018-05-24T07:33:31.102Z,270
2018-05-24T07:34:39.757Z,255
2018-05-24T07:35:48.409Z,245
2018-05-24T07:36:57.056Z,235
2018-05-24T07:38:05.703Z,230
2018-05-24T07:39:14.360Z,230
2018-05-24T07:40:23.013Z,230
2018-05-24T07:41:31.659Z,230
2018-05-24T07:42:40.304Z,240
2018-05-24T07:43:49.237Z,245
2018-05-24T07:44:58.177Z,250
2018-05-24T07:46:06.814Z,245
2018-05-24T07:47:15.724Z,245
2018-05-24T07:48:24.374Z,250
2018-05-24T07:49:33.023Z,230
2018-05-24T07:50:41.673Z,225
2018-05-24T07:51:50.325Z,225
2018-05-24T07:52:58.970Z,225
2018-05-24T07:54:07.627Z,225
2018-05-24T07:55:16.275Z,235
2018-05-24T07:56:25.186Z,255
2018-05-24T07:57:33.830Z,275
2018-05-24T07:58:42.480Z,300
2018-05-24T07:59:51.132Z,335
2018-05-24T08:00:59.785Z,335
2018-05-24T08:02:08.972Z,315
2018-05-24T08:03:17.622Z,310
2018-05-24T08:04:26.275Z,310
2018-05-24T08:05:35.199Z,305
2018-05-24T08:06:43.848Z,310
2018-05-24T08:07:52.497Z,335
2018-05-24T08:09:01.149Z,355
2018-05-24T08:10:09.796Z,395
2018-05-24T08:11:18.453Z,405
2018-05-24T08:12:27.099Z,420
2018-05-24T08:13:35.754Z,435
2018-05-24T08:14:44.454Z,425
2018-05-24T08:15:53.057Z,385
2018-05-24T08:17:01.704Z,385
2018-05-24T08:18:10.359Z,370
2018-05-24T08:19:19.005Z,380
2018-05-24T08:20:27.664Z,390
2018-05-24T08:21:36.313Z,360
2018-05-24T08:22:44.971Z,335
2018-05-24T08:23:53.611Z,330
2018-05-24T08:25:02.266Z,355
2018-05-24T08:26:10.922Z,345
2018-05-24T08:27:19.839Z,370
2018-05-24T08:28:28.489Z,390
2018-05-24T08:29:37.127Z,420
2018-05-24T08:30:45.782Z,405
2018-05-24T08:31:54.438Z,400
2018-05-24T08:33:03.088Z,420
2018-05-24T08:34:11.731Z,405
2018-05-24T08:35:20.767Z,410
2018-05-24T08:36:29.415Z,380
2018-05-24T08:37:38.074Z,390
2018-05-24T08:38:46.718Z,375
2018-05-24T08:39:55.373Z,370
2018-05-24T08:41:04.022Z,350
2018-05-24T08:42:12.682Z,325
2018-05-24T08:43:21.331Z,335
2018-05-24T08:44:30.248Z,400
2018-05-24T08:45:38.903Z,410
2018-05-24T08:46:47.548Z,375
2018-05-24T08:47:56.208Z,370
2018-05-24T08:49:04.856Z,370
2018-05-24T08:50:13.514Z,375
2018-05-24T08:51:22.163Z,370
2018-05-24T08:52:30.824Z,355
2018-05-24T08:53:39.473Z,330
2018-05-24T08:54:48.125Z,310
2018-05-24T08:55:57.032Z,295
2018-05-24T08:57:05.974Z,280
2018-05-24T08:58:14.622Z,260
2018-05-24T08:59:23.277Z,250
2018-05-24T09:00:32.181Z,255
2018-05-24T09:01:40.838Z,235
2018-05-24T09:02:49.496Z,215
2018-05-24T09:03:58.420Z,255
2018-05-24T09:05:07.074Z,270
2018-05-24T09:06:15.721Z,240
2018-05-24T09:07:24.381Z,285
2018-05-24T09:08:33.031Z,320
2018-05-24T09:09:41.963Z,335
2018-05-24T09:10:50.609Z,360
2018-05-24T09:11:59.258Z,315
2018-05-24T09:13:07.926Z,320
2018-05-24T09:14:16.573Z,325
2018-05-24T09:15:25.232Z,360
2018-05-24T09:16:33.884Z,350
2018-05-24T09:17:42.538Z,330
2018-05-24T09:18:51.186Z,325
2018-05-24T09:19:59.837Z,325
2018-05-24T09:21:08.492Z,310
2018-05-24T09:22:17.139Z,295
2018-05-24T09:23:26.046Z,305
2018-05-24T09:24:34.953Z,325
2018-05-24T09:25:43.880Z,305
2018-05-24T09:26:52.782Z,270
2018-05-24T09:28:01.442Z,270
2018-05-24T09:29:10.088Z,330
2018-05-24T09:30:19.282Z,310
2018-05-24T09:31:28.196Z,315
2018-05-24T09:32:36.856Z,330
2018-05-24T09:33:45.499Z,325
2018-05-24T09:34:54.155Z,365
2018-05-24T09:36:02.802Z,315
2018-05-24T09:37:11.468Z,325
2018-05-24T09:38:20.116Z,370
2018-05-24T09:39:28.764Z,355
2018-05-24T09:40:37.414Z,335
2018-05-24T09:41:46.065Z,310
2018-05-24T09:42:54.727Z,285
2018-05-24T09:44:03.377Z,265
2018-05-24T09:45:12.032Z,255
2018-05-24T09:46:20.674Z,255
2018-05-24T09:47:29.336Z,265
2018-05-24T09:48:38.246Z,250
2018-05-24T09:49:46.904Z,230
2018-05-24T09:50:55.552Z,240
2018-05-24T09:52:04.736Z,235
2018-05-24T09:53:13.390Z,245
2018-05-24T09:54:22.046Z,245
2018-05-24T09:55:31.089Z,250
2018-05-24T09:56:39.745Z,230
2018-05-24T09:57:48.401Z,220
2018-05-24T09:58:57.057Z,255
2018-05-24T10:00:05.711Z,285
2018-05-24T10:01:14.354Z,285
2018-05-24T10:02:23.010Z,285
2018-05-24T10:03:31.926Z,255
2018-05-24T10:04:40.621Z,290
2018-05-24T10:05:49.233Z,290
2018-05-24T10:06:58.159Z,250
2018-05-24T10:08:06.806Z,280
2018-05-24T10:09:15.465Z,260
2018-05-24T10:10:24.113Z,280
2018-05-24T10:11:32.768Z,290
2018-05-24T10:12:41.418Z,285
2018-05-24T10:13:50.074Z,320
2018-05-24T10:14:58.723Z,315
2018-05-24T10:16:07.456Z,310
2018-05-24T10:17:16.296Z,265
2018-05-24T10:18:24.948Z,250
2018-05-24T10:19:33.605Z,265
2018-05-24T10:20:42.258Z,255
2018-05-24T10:21:50.910Z,265
2018-05-24T10:22:59.558Z,285
2018-05-24T10:24:08.497Z,290
2018-05-24T10:25:17.171Z,310
2018-05-24T10:26:26.006Z,315
2018-05-24T10:27:34.670Z,320
2018-05-24T10:28:43.433Z,335
2018-05-24T10:29:52.082Z,340
2018-05-24T10:31:01.005Z,330
2018-05-24T10:32:09.649Z,340
2018-05-24T10:33:18.305Z,330
2018-05-24T10:34:27.036Z,320
2018-05-24T10:35:35.692Z,290
2018-05-24T10:36:44.950Z,280
2018-05-24T10:37:53.915Z,265
2018-05-24T10:39:02.572Z,255
2018-05-24T10:40:11.273Z,235
2018-05-24T10:41:19.928Z,220
2018-05-24T10:42:29.304Z,210
2018-05-24T10:43:37.963Z,190
2018-05-24T10:44:46.617Z,170
2018-05-24T10:45:55.271Z,165
2018-05-24T10:47:03.919Z,170
2018-05-24T10:48:12.572Z,195
2018-05-24T10:49:21.224Z,200
2018-05-24T10:50:29.880Z,210
2018-05-24T10:51:38.529Z,220
2018-05-24T10:52:47.446Z,240
2018-05-24T10:53:56.096Z,255
2018-05-24T10:55:04.764Z,275
2018-05-24T10:56:13.433Z,305
2018-05-24T10:57:22.086Z,315
2018-05-24T10:58:30.789Z,345
2018-05-24T10:59:39.421Z,365
2018-05-24T11:00:48.041Z,375
2018-05-24T11:01:56.692Z,385
2018-05-24T11:03:05.403Z,400
2018-05-24T11:04:14.263Z,405
2018-05-24T11:05:22.920Z,410
2018-05-24T11:06:31.589Z,415
2018-05-24T11:07:40.506Z,440
2018-05-24T11:08:49.169Z,490
2018-05-24T11:09:57.819Z,450
2018-05-24T11:11:06.466Z,450
2018-05-24T11:12:15.117Z,380
2018-05-24T11:13:23.770Z,425
2018-05-24T11:14:32.695Z,440
2018-05-24T11:15:41.605Z,380
2018-05-24T11:16:50.263Z,400
2018-05-24T11:17:59.174Z,365
2018-05-24T11:19:07.834Z,370
2018-05-24T11:20:16.490Z,380
2018-05-24T11:21:25.140Z,350
2018-05-24T11:22:34.083Z,285
2018-05-24T11:23:42.752Z,370
2018-05-24T11:24:51.406Z,315
2018-05-24T11:26:00.064Z,285
2018-05-24T11:27:08.703Z,290
2018-05-24T11:28:17.359Z,295
2018-05-24T11:29:26.015Z,320
2018-05-24T11:30:34.672Z,310
2018-05-24T11:31:44.303Z,320
2018-05-24T11:32:52.873Z,350
2018-05-24T11:34:01.530Z,370
2018-05-24T11:35:10.178Z,375
2018-05-24T11:36:18.838Z,350
2018-05-24T11:37:27.489Z,335
2018-05-24T11:38:36.140Z,330
2018-05-24T11:39:44.790Z,340
2018-05-24T11:40:53.710Z,350
2018-05-24T11:42:02.355Z,340
2018-05-24T11:43:11.097Z,330
2018-05-24T11:44:19.928Z,310
2018-05-24T11:45:28.590Z,290
2018-05-24T11:46:37.239Z,270
2018-05-24T11:47:45.887Z,265
2018-05-24T11:48:54.807Z,240
2018-05-24T11:50:03.465Z,225
2018-05-24T11:51:12.132Z,220
2018-05-24T11:52:20.785Z,230
2018-05-24T11:53:29.443Z,215
2018-05-24T11:54:38.088Z,195
2018-05-24T11:55:46.754Z,190
2018-05-24T11:56:55.401Z,185
2018-05-24T11:58:04.058Z,185
2018-05-24T11:59:12.701Z,185
2018-05-24T12:00:21.362Z,195
2018-05-24T12:01:30.017Z,205
2018-05-24T12:02:38.670Z,210
2018-05-24T12:03:47.309Z,220
2018-05-24T12:04:56.224Z,230
2018-05-24T12:06:05.145Z,235
2018-05-24T12:07:13.804Z,235
2018-05-24T12:08:22.450Z,240
2018-05-24T12:09:31.100Z,235
2018-05-24T12:10:39.748Z,230
2018-05-24T12:11:48.400Z,235
2018-05-24T12:12:57.073Z,240
2018-05-24T12:14:05.711Z,250
2018-05-24T12:15:14.708Z,260
2018-05-24T12:16:23.635Z,260
2018-05-24T12:17:32.291Z,245
2018-05-24T12:18:40.939Z,225
2018-05-24T12:19:49.593Z,220
2018-05-24T12:20:58.246Z,215
2018-05-24T12:22:06.902Z,230
2018-05-24T12:23:15.554Z,250
2018-05-24T12:24:24.205Z,265
2018-05-24T12:25:32.859Z,270
2018-05-24T12:26:41.511Z,245
2018-05-24T12:27:50.174Z,240
2018-05-24T12:28:58.830Z,245
2018-05-24T12:30:07.484Z,255
2018-05-24T12:31:16.131Z,265
2018-05-24T12:32:24.786Z,270
2018-05-24T12:33:33.437Z,270
2018-05-24T12:34:42.090Z,265
2018-05-24T12:35:50.740Z,260
2018-05-24T12:36:59.395Z,250
2018-05-24T12:38:08.307Z,240
2018-05-24T12:39:16.962Z,230
2018-05-24T12:40:25.870Z,230
2018-05-24T12:41:34.533Z,230
2018-05-24T12:42:43.509Z,225
2018-05-24T12:43:52.556Z,230
2018-05-24T12:45:01.565Z,235
2018-05-24T12:46:10.251Z,240
2018-05-24T12:47:19.167Z,235
2018-05-24T12:48:28.086Z,230
2018-05-24T12:49:36.741Z,225
2018-05-24T12:50:45.391Z,215
2018-05-24T12:51:54.043Z,210
2018-05-24T12:53:02.699Z,190
2018-05-24T12:54:11.351Z,160
2018-05-24T12:55:19.997Z,135
2018-05-24T12:56:28.651Z,125
2018-05-24T12:57:37.373Z,115
2018-05-24T12:58:46.030Z,110
2018-05-24T12:59:54.944Z,110
2018-05-24T13:01:03.862Z,130
2018-05-24T13:02:12.511Z,165
2018-05-24T13:03:21.415Z,195
2018-05-24T13:04:30.071Z,205
2018-05-24T13:05:38.986Z,195
2018-05-24T13:06:47.869Z,190
2018-05-24T13:07:56.790Z,180
2018-05-24T13:09:05.434Z,190
2018-05-24T13:10:14.085Z,205
2018-05-24T13:11:22.739Z,210
2018-05-24T13:12:31.662Z,205
2018-05-24T13:13:40.569Z,200
2018-05-24T13:14:49.223Z,205
2018-05-24T13:15:57.872Z,195
2018-05-24T13:17:07.089Z,185
2018-05-24T13:18:15.614Z,215
2018-05-24T13:19:24.266Z,220
2018-05-24T13:20:32.922Z,215
2018-05-24T13:21:41.831Z,210
2018-05-24T13:22:50.489Z,210
2018-05-24T13:23:59.141Z,210
2018-05-24T13:25:08.054Z,210
2018-05-24T13:26:16.701Z,210
2018-05-24T13:27:25.621Z,210
2018-05-24T13:28:34.272Z,215
2018-05-24T13:29:42.923Z,210
2018-05-24T13:30:52.092Z,210
2018-05-24T13:32:00.748Z,210
2018-05-24T13:33:09.402Z,215
2018-05-24T13:34:18.318Z,210
2018-05-24T13:35:27.231Z,205
2018-05-24T13:36:35.887Z,195
2018-05-24T13:37:44.538Z,195
2018-05-24T13:38:53.191Z,190
2018-05-24T13:40:01.850Z,180
2018-05-24T13:41:10.500Z,180
2018-05-24T13:42:19.417Z,180
2018-05-24T13:43:28.342Z,180
2018-05-24T13:44:37.260Z,170
2018-05-24T13:45:45.904Z,160
2018-05-24T13:46:54.555Z,140
2018-05-24T13:48:03.205Z,130
2018-05-24T13:49:11.861Z,110
2018-05-24T13:50:20.512Z,115
2018-05-24T13:51:29.162Z,110
2018-05-24T13:52:37.877Z,115
2018-05-24T13:53:46.465Z,120
2018-05-24T13:54:55.108Z,120
2018-05-24T13:56:04.294Z,125
2018-05-24T13:57:12.942Z,125
2018-05-24T13:58:21.592Z,130
2018-05-24T13:59:30.248Z,130
2018-05-24T14:00:38.903Z,130
2018-05-24T14:01:47.844Z,130
2018-05-24T14:02:56.733Z,125
2018-05-24T14:04:05.389Z,135
2018-05-24T14:05:14.039Z,135
2018-05-24T14:06:22.692Z,130
2018-05-24T14:07:31.598Z,125
2018-05-24T14:08:40.256Z,130
2018-05-24T14:09:48.905Z,135
2018-05-24T14:10:57.559Z,150
2018-05-24T14:12:06.200Z,165
2018-05-24T14:13:14.854Z,190
2018-05-24T14:14:23.776Z,205
2018-05-24T14:15:32.433Z,210
2018-05-24T14:16:41.352Z,210
2018-05-24T14:17:49.995Z,210
2018-05-24T14:18:58.650Z,205
2018-05-24T14:20:07.296Z,195
2018-05-24T14:21:15.959Z,180
2018-05-24T14:22:24.603Z,170
2018-05-24T14:23:33.262Z,160
2018-05-24T14:24:42.440Z,155
2018-05-24T14:25:51.100Z,160
2018-05-24T14:26:59.743Z,165
2018-05-24T14:28:08.395Z,170
2018-05-24T14:29:17.316Z,170
2018-05-24T14:30:26.242Z,155
2018-05-24T14:31:34.884Z,150
2018-05-24T14:32:43.529Z,140
2018-05-24T14:33:52.180Z,145
2018-05-24T14:35:00.827Z,140
2018-05-24T14:36:09.750Z,130
2018-05-24T14:37:18.395Z,120
2018-05-24T14:38:27.064Z,120
2018-05-24T14:39:35.692Z,115
2018-05-24T14:40:44.351Z,120
2018-05-24T14:41:52.998Z,120
2018-05-24T14:43:01.654Z,115
2018-05-24T14:44:10.291Z,115
2018-05-24T14:45:18.950Z,110
2018-05-24T14:46:27.599Z,110
2018-05-24T14:47:36.561Z,110
2018-05-24T14:48:45.202Z,115
2018-05-24T14:49:53.853Z,115
2018-05-24T14:51:02.506Z,105
2018-05-24T14:52:11.162Z,100
2018-05-24T14:53:19.814Z,95
2018-05-24T14:54:28.718Z,95
2018-05-24T14:55:37.376Z,95
2018-05-24T14:56:46.017Z,100
2018-05-24T14:57:54.677Z,110
2018-05-24T14:59:03.318Z,125
2018-05-24T15:00:11.973Z,130
2018-05-24T15:01:20.618Z,140
2018-05-24T15:02:29.276Z,150
2018-05-24T15:03:37.921Z,150
2018-05-24T15:04:46.572Z,150
2018-05-24T15:05:55.744Z,145
2018-05-24T15:07:04.401Z,140
2018-05-24T15:08:13.052Z,140
2018-05-24T15:09:21.708Z,145
2018-05-24T15:10:30.620Z,150
2018-05-24T15:11:39.269Z,145
2018-05-24T15:12:47.923Z,145
2018-05-24T15:13:57.109Z,135
2018-05-24T15:15:05.758Z,135
2018-05-24T15:16:14.403Z,135
2018-05-24T15:17:23.058Z,135
2018-05-24T15:18:31.726Z,130
2018-05-24T15:19:40.355Z,130
2018-05-24T15:20:49.003Z,125
2018-05-24T15:21:57.657Z,125
2018-05-24T15:23:06.571Z,120
2018-05-24T15:24:15.221Z,115
2018-05-24T15:25:23.865Z,110
2018-05-24T15:26:32.516Z,105
2018-05-24T15:27:41.167Z,110
2018-05-24T15:28:49.827Z,115
2018-05-24T15:29:58.483Z,120
2018-05-24T15:31:07.393Z,130
2018-05-24T15:32:16.309Z,135
2018-05-24T15:33:25.010Z,140
2018-05-24T15:34:33.616Z,140
2018-05-24T15:35:42.263Z,150
2018-05-24T15:36:50.912Z,150
2018-05-24T15:37:59.865Z,150
2018-05-24T15:39:08.520Z,145
2018-05-24T15:40:17.165Z,145
2018-05-24T15:41:25.816Z,145
2018-05-24T15:42:34.459Z,140
2018-05-24T15:43:43.172Z,145
2018-05-24T15:44:51.763Z,150
2018-05-24T15:46:00.415Z,155
2018-05-24T15:47:09.062Z,165
2018-05-24T15:48:17.712Z,170
2018-05-24T15:49:26.636Z,175
2018-05-24T15:50:35.286Z,175
2018-05-24T15:51:44.214Z,175
2018-05-24T15:52:52.861Z,175
2018-05-24T15:54:01.515Z,170
2018-05-24T15:55:10.427Z,175
2018-05-24T15:56:19.086Z,175
2018-05-24T15:57:27.726Z,170
2018-05-24T15:58:36.381Z,165
2018-05-24T15:59:45.029Z,165
2018-05-24T16:00:53.685Z,165
2018-05-24T16:02:02.327Z,160
2018-05-24T16:03:11.511Z,160